Balladonia, Australia
Current Conditions -  °F | °C
As of 10:00 AM on Saturday 20 Dec 2014 (Local Time) from YESP Reporting Station
Broken Clouds Broken Clouds  
Wind Chill: 90°   Ceiling: 12500
Heat Index: 90°   Visibility: 6mi
Dew Point: 54°   Wind: 18mph
Humidity: 29%   Direction: 20°NNE
Pressure: 29.77"   Gusts: NA
Location:  32.47°S, 123.83°E
Report Text: YESP 200200Z AUTO 02016KT 9999 // BKN125 32/12 Q1008
Loading
Personal Weather Stations






























Interactive Weather Map New forecast layout! Learn more

10-Day Weather Forecast

Advertisements
Track Severe Weather on mobile